Time;durP1;ratioP1;P1;durP2;ratioP2;P2;SDS_P1;SDS_P2;PMS_P1;PMS_P2;Temp;Humidity;BMP_temperature;BMP_pressure;BME280_temperature;BME280_humidity;BME280_pressure;Samples;Min_cycle;Max_cycle;Signal;HPM_P1;HPM_P2
2021/07/26 00:02:14;;;;;;;22.82;9.88;;;;;;;17.10;100.00;101220.06;1753647;81;21129;-38
2021/07/26 00:04:40;;;;;;;19.98;9.10;;;;;;;17.06;100.00;101207.53;1757982;81;20919;-38
2021/07/26 00:07:08;;;;;;;12.75;7.75;;;;;;;17.04;100.00;101217.63;1734582;81;21011;-40
2021/07/26 00:09:37;;;;;;;25.37;9.38;;;;;;;17.01;100.00;101217.30;1724779;82;20967;-39
2021/07/26 00:12:05;;;;;;;20.57;9.25;;;;;;;16.99;100.00;101213.02;1737502;81;21015;-39
2021/07/26 00:14:32;;;;;;;17.27;8.40;;;;;;;16.96;100.00;101213.96;1739130;81;21795;-39
2021/07/26 00:16:59;;;;;;;13.15;8.85;;;;;;;16.95;100.00;101220.94;1733346;81;20980;-39
2021/07/26 00:19:27;;;;;;;12.68;8.70;;;;;;;16.94;100.00;101224.45;1713214;83;20967;-39
2021/07/26 00:21:53;;;;;;;17.17;8.88;;;;;;;16.92;100.00;101219.73;1726126;82;20939;-39
2021/07/26 00:24:22;;;;;;;18.02;9.50;;;;;;;16.89;100.00;101218.53;1710779;81;20998;-38
2021/07/26 00:26:48;;;;;;;19.42;9.10;;;;;;;16.88;100.00;101224.67;1742289;81;21133;-39
2021/07/26 00:29:16;;;;;;;17.98;8.85;;;;;;;16.85;100.00;101227.38;1749069;81;21035;-39
2021/07/26 00:31:44;;;;;;;19.45;9.35;;;;;;;16.82;100.00;101227.48;1760744;81;20990;-39
2021/07/26 00:34:26;;;;;;;24.32;9.00;;;;;;;16.77;100.00;101230.24;1744024;81;20935;-39
2021/07/26 00:36:58;;;;;;;16.15;8.50;;;;;;;16.73;100.00;101223.41;1728952;81;21493;-39
2021/07/26 00:39:28;;;;;;;18.85;9.65;;;;;;;16.67;100.00;101227.50;1735498;81;21228;-39
2021/07/26 00:41:55;;;;;;;11.97;7.97;;;;;;;16.64;100.00;101231.09;1744839;81;21477;-40
2021/07/26 00:44:23;;;;;;;17.50;8.95;;;;;;;16.60;100.00;101224.25;1744381;81;21494;-40
2021/07/26 00:46:50;;;;;;;22.98;9.18;;;;;;;16.57;100.00;101233.50;1741705;82;20988;-39
2021/07/26 00:49:17;;;;;;;20.80;8.78;;;;;;;16.54;100.00;101234.88;1727094;82;21004;-39
2021/07/26 00:51:47;;;;;;;19.20;9.23;;;;;;;16.48;100.00;101227.23;1726740;83;21137;-40
2021/07/26 00:54:25;;;;;;;16.17;8.80;;;;;;;16.43;99.90;101231.31;1708494;82;20939;-39
2021/07/26 00:56:53;;;;;;;17.70;8.10;;;;;;;16.39;99.94;101228.36;1720104;82;20999;-39
2021/07/26 00:59:20;;;;;;;15.32;9.28;;;;;;;16.36;99.94;101229.77;1723398;82;20964;-42
2021/07/26 01:01:46;;;;;;;31.07;9.13;;;;;;;16.32;99.99;101231.64;1740760;82;20998;-38
2021/07/26 01:04:13;;;;;;;21.55;9.03;;;;;;;16.30;100.00;101239.97;1733491;82;21174;-39
2021/07/26 01:06:40;;;;;;;22.52;9.25;;;;;;;16.26;100.00;101235.72;1727097;82;21006;-39
2021/07/26 01:09:07;;;;;;;18.07;9.23;;;;;;;16.23;100.00;101231.89;1707678;82;20998;-39
2021/07/26 01:11:34;;;;;;;16.07;8.90;;;;;;;16.18;99.95;101228.57;1726700;82;20988;-39
2021/07/26 01:14:01;;;;;;;22.00;8.43;;;;;;;16.15;99.85;101229.97;1729513;82;21576;-39
2021/07/26 01:16:29;;;;;;;24.32;9.13;;;;;;;16.10;99.79;101231.40;1721202;81;21213;-39
2021/07/26 01:18:56;;;;;;;19.87;9.13;;;;;;;16.05;99.70;101236.78;1713713;82;20916;-39
2021/07/26 01:21:23;;;;;;;15.32;9.35;;;;;;;16.00;99.68;101228.20;1718726;82;21204;-38
2021/07/26 01:23:51;;;;;;;16.45;9.30;;;;;;;15.99;99.68;101238.23;1741880;82;20987;-38
2021/07/26 01:26:21;;;;;;;16.93;9.40;;;;;;;15.96;99.69;101233.11;1730837;82;20899;-39
2021/07/26 01:28:54;;;;;;;13.32;9.10;;;;;;;15.94;99.65;101238.39;1729994;82;21029;-38
2021/07/26 01:31:21;;;;;;;14.47;8.43;;;;;;;15.90;99.48;101233.29;1736815;82;20971;-39
2021/07/26 01:33:49;;;;;;;13.15;8.68;;;;;;;15.87;99.40;101233.35;1737686;82;20979;-39
2021/07/26 01:36:17;;;;;;;16.17;8.43;;;;;;;15.85;99.32;101237.30;1732589;82;20988;-39
2021/07/26 01:38:45;;;;;;;18.45;8.68;;;;;;;15.82;99.27;101241.77;1734551;82;21004;-39
2021/07/26 01:41:18;;;;;;;19.17;8.90;;;;;;;15.79;99.27;101250.52;1722237;82;21098;-39
2021/07/26 01:44:02;;;;;;;22.70;9.50;;;;;;;15.74;99.31;101241.50;1732596;82;21034;-39
2021/07/26 01:46:24;;;;;;;24.90;9.25;;;;;;;15.71;99.34;101245.51;1715926;82;20944;-39
2021/07/26 01:49:46;;;;;;;13.78;8.55;;;;;;;15.68;99.32;101246.91;1731694;82;21529;-39
2021/07/26 01:52:13;;;;;;;15.00;8.83;;;;;;;15.66;99.28;101250.00;1727019;82;20978;-41
2021/07/26 01:54:40;;;;;;;19.23;9.80;;;;;;;15.62;99.28;101248.38;1740552;82;21212;-39
2021/07/26 01:57:07;;;;;;;18.60;9.33;;;;;;;15.58;99.29;101246.76;1724648;82;20944;-39
2021/07/26 01:59:33;;;;;;;18.27;9.00;;;;;;;15.54;99.24;101252.50;1738191;81;20925;-39
2021/07/26 02:01:59;;;;;;;20.48;9.10;;;;;;;15.52;99.21;101249.91;1747626;81;20900;-39
2021/07/26 02:04:26;;;;;;;14.93;8.45;;;;;;;15.51;99.15;101255.19;1744601;81;20927;-40
2021/07/26 02:06:53;;;;;;;22.05;9.03;;;;;;;15.49;99.03;101252.61;1741846;81;22163;-38
2021/07/26 02:09:19;;;;;;;14.30;8.75;;;;;;;15.48;99.02;101252.66;1739736;81;20931;-38
2021/07/26 02:11:47;;;;;;;19.12;9.63;;;;;;;15.44;99.08;101254.48;1749845;81;21482;-38
2021/07/26 02:14:14;;;;;;;17.77;8.03;;;;;;;15.43;99.08;101255.38;1741569;81;21481;-39
2021/07/26 02:16:42;;;;;;;18.17;8.50;;;;;;;15.44;99.10;101260.17;1745870;81;21457;-38
2021/07/26 02:19:09;;;;;;;17.23;8.78;;;;;;;15.43;99.14;101259.77;1736554;82;22301;-38
2021/07/26 02:21:35;;;;;;;24.27;9.65;;;;;;;15.43;99.04;101263.21;1730159;82;21019;-38
2021/07/26 02:24:02;;;;;;;16.10;8.88;;;;;;;15.41;98.92;101261.09;1732935;81;21018;-38
2021/07/26 02:26:28;;;;;;;17.12;7.92;;;;;;;15.41;98.89;101253.27;1736090;81;20960;-38
2021/07/26 02:28:54;;;;;;;16.67;9.03;;;;;;;15.43;98.86;101261.06;1738686;81;21025;-39
2021/07/26 02:31:21;;;;;;;12.90;8.95;;;;;;;15.43;98.88;101259.30;1742409;81;21250;-38
2021/07/26 02:33:47;;;;;;;15.38;10.15;;;;;;;15.43;98.79;101261.91;1745169;81;21014;-38
2021/07/26 02:36:14;;;;;;;28.02;9.23;;;;;;;15.43;98.78;101258.45;1757677;81;20896;-38
2021/07/26 02:38:40;;;;;;;18.23;9.33;;;;;;;15.44;98.74;101258.87;1753858;81;20917;-38
2021/07/26 02:41:11;;;;;;;23.15;8.78;;;;;;;15.47;98.74;101260.92;1715083;82;20927;-37
2021/07/26 02:43:38;;;;;;;15.15;8.78;;;;;;;15.50;98.58;101256.92;1718902;82;20987;-38
2021/07/26 02:46:06;;;;;;;19.37;9.35;;;;;;;15.52;98.55;101260.34;1731465;81;20999;-38
2021/07/26 02:48:33;;;;;;;19.42;9.33;;;;;;;15.55;98.50;101265.11;1737670;81;20999;-38
2021/07/26 02:50:59;;;;;;;23.47;8.90;;;;;;;15.57;98.39;101268.53;1755898;81;20884;-38
2021/07/26 02:53:26;;;;;;;17.85;8.70;;;;;;;15.62;98.44;101274.48;1748698;81;21592;-38
2021/07/26 02:55:52;;;;;;;15.48;8.58;;;;;;;15.65;98.35;101270.01;1752705;81;21111;-38
2021/07/26 02:58:20;;;;;;;11.90;8.75;;;;;;;15.69;98.26;101267.34;1752342;80;20931;-38
2021/07/26 03:00:47;;;;;;;21.52;9.85;;;;;;;15.73;98.11;101276.34;1733779;81;20959;-38
2021/07/26 03:03:14;;;;;;;15.00;8.25;;;;;;;15.76;97.97;101277.55;1750337;81;21553;-38
2021/07/26 03:05:40;;;;;;;14.00;8.15;;;;;;;15.83;97.86;101285.23;1731337;81;21496;-38
2021/07/26 03:08:07;;;;;;;18.52;9.10;;;;;;;15.87;97.76;101282.48;1744613;81;21466;-38
2021/07/26 03:10:34;;;;;;;24.43;9.00;;;;;;;15.93;97.61;101288.89;1738636;81;21058;-38
2021/07/26 03:13:01;;;;;;;17.20;8.75;;;;;;;16.00;97.55;101283.03;1740075;81;20885;-39
2021/07/26 03:15:27;;;;;;;15.13;8.38;;;;;;;16.05;97.25;101289.00;1739181;82;21019;-38
2021/07/26 03:17:54;;;;;;;15.40;9.05;;;;;;;16.10;97.11;101287.55;1739601;82;21502;-39
2021/07/26 03:20:20;;;;;;;18.37;8.33;;;;;;;16.16;96.83;101283.45;1731183;82;21911;-40
2021/07/26 03:23:03;;;;;;;14.43;8.43;;;;;;;16.23;96.62;101290.66;1733164;81;21541;-39
2021/07/26 03:25:32;;;;;;;17.70;8.03;;;;;;;16.30;96.61;101294.83;1722277;81;21490;-39
2021/07/26 03:27:59;;;;;;;13.13;8.60;;;;;;;16.42;96.67;101293.62;1717048;83;20930;-39
2021/07/26 03:30:26;;;;;;;17.70;8.45;;;;;;;16.52;96.79;101285.02;1737699;82;21001;-39
2021/07/26 03:32:52;;;;;;;19.65;7.95;;;;;;;16.63;96.61;101286.00;1736926;81;21135;-39
2021/07/26 03:35:20;;;;;;;20.15;8.15;;;;;;;16.74;96.44;101285.23;1722790;81;20964;-39
2021/07/26 03:37:47;;;;;;;18.42;8.28;;;;;;;16.85;96.22;101286.21;1725174;81;20916;-39
2021/07/26 03:40:15;;;;;;;20.15;8.65;;;;;;;16.94;95.67;101284.59;1735386;81;21042;-39
2021/07/26 03:42:42;;;;;;;20.25;8.30;;;;;;;17.04;95.29;101283.89;1717073;81;21038;-38
2021/07/26 03:45:12;;;;;;;22.10;8.15;;;;;;;17.14;94.81;101284.44;1736150;81;21137;-38
2021/07/26 03:47:40;;;;;;;18.62;8.30;;;;;;;17.26;94.18;101285.80;1711219;81;21013;-39
2021/07/26 03:50:08;;;;;;;19.02;8.20;;;;;;;17.37;93.54;101285.44;1739224;82;20997;-39
2021/07/26 03:52:48;;;;;;;20.17;7.50;;;;;;;17.48;93.20;101287.22;1736978;81;20916;-39
2021/07/26 03:55:21;;;;;;;19.75;7.90;;;;;;;17.58;93.03;101281.22;1734465;81;20923;-40
2021/07/26 03:57:49;;;;;;;27.93;7.75;;;;;;;17.72;92.67;101289.06;1722104;81;23392;-39
2021/07/26 04:00:17;;;;;;;17.10;7.72;;;;;;;17.85;92.27;101291.63;1721385;82;20974;-39
2021/07/26 04:02:53;;;;;;;19.62;7.67;;;;;;;17.95;91.83;101298.27;1745734;82;21086;-38
2021/07/26 04:05:25;;;;;;;17.17;7.55;;;;;;;18.05;91.18;101297.48;1730875;82;20947;-39
2021/07/26 04:07:49;;;;;;;23.60;8.75;;;;;;;18.15;90.75;101299.78;1731890;82;21521;-39
2021/07/26 04:10:18;;;;;;;14.87;7.92;;;;;;;18.20;90.23;101299.14;1711801;82;21006;-38
2021/07/26 04:12:49;;;;;;;25.52;8.05;;;;;;;18.28;89.94;101299.70;1725659;82;20941;-39
2021/07/26 04:15:15;;;;;;;19.10;7.83;;;;;;;18.34;89.83;101298.19;1737615;82;21030;-39
2021/07/26 04:17:42;;;;;;;16.35;7.58;;;;;;;18.44;89.47;101302.63;1730290;81;21009;-39
2021/07/26 04:20:10;;;;;;;24.87;8.08;;;;;;;18.58;89.26;101306.47;1748470;82;21194;-39
2021/07/26 04:22:37;;;;;;;25.72;7.37;;;;;;;18.72;89.01;101308.11;1729282;81;21783;-39
2021/07/26 04:25:05;;;;;;;10.58;6.45;;;;;;;18.87;88.47;101304.02;1729097;82;21003;-39
2021/07/26 04:27:35;;;;;;;10.98;7.15;;;;;;;19.01;87.95;101312.67;1730821;82;20901;-40
2021/07/26 04:30:00;;;;;;;16.87;7.05;;;;;;;19.13;87.60;101311.77;1735928;82;21584;-39
2021/07/26 04:32:26;;;;;;;18.75;7.30;;;;;;;19.23;86.68;101315.27;1738723;81;21023;-40
2021/07/26 04:34:59;;;;;;;13.70;7.33;;;;;;;19.35;86.33;101306.50;1716619;82;21905;-39
2021/07/26 04:37:26;;;;;;;17.32;6.78;;;;;;;19.45;85.68;101306.50;1720480;82;20963;-39
2021/07/26 04:39:53;;;;;;;16.70;6.50;;;;;;;19.57;84.94;101306.44;1732750;82;20932;-39
2021/07/26 04:42:19;;;;;;;22.10;7.15;;;;;;;19.66;83.48;101313.91;1732347;82;20936;-39
2021/07/26 04:44:46;;;;;;;20.05;6.92;;;;;;;19.75;82.76;101301.31;1729409;82;20925;-40
2021/07/26 04:47:12;;;;;;;23.07;6.20;;;;;;;19.85;82.33;101302.60;1730056;82;21125;-39
2021/07/26 04:49:40;;;;;;;17.98;5.83;;;;;;;19.93;82.37;101303.14;1730241;82;21486;-39
2021/07/26 04:52:07;;;;;;;20.05;6.12;;;;;;;20.02;82.48;101302.35;1732267;82;21402;-39
2021/07/26 04:54:34;;;;;;;11.70;5.90;;;;;;;20.18;82.47;101308.60;1704270;82;21011;-39
2021/07/26 04:57:01;;;;;;;15.38;6.50;;;;;;;20.37;81.48;101307.31;1709776;81;21490;-40
2021/07/26 04:59:28;;;;;;;21.10;6.30;;;;;;;20.64;80.76;101307.39;1714428;81;21150;-40
2021/07/26 05:01:55;;;;;;;14.25;6.65;;;;;;;20.98;79.41;101302.31;1740759;81;20970;-40
2021/07/26 05:04:21;;;;;;;15.83;6.55;;;;;;;21.38;77.96;101301.17;1730604;81;21006;-40
2021/07/26 05:06:48;;;;;;;17.73;6.37;;;;;;;21.81;76.37;101298.13;1756417;81;21002;-40
2021/07/26 05:09:15;;;;;;;17.75;6.42;;;;;;;22.16;73.93;101295.86;1731847;81;20999;-40
2021/07/26 05:11:43;;;;;;;14.47;6.42;;;;;;;22.41;72.03;101293.69;1701714;81;22092;-40
2021/07/26 05:14:11;;;;;;;15.13;6.03;;;;;;;22.58;70.91;101295.41;1740626;81;20960;-40
2021/07/26 05:16:38;;;;;;;15.53;6.05;;;;;;;22.78;69.91;101287.67;1739816;81;20920;-40
2021/07/26 05:19:04;;;;;;;19.65;6.70;;;;;;;23.03;69.07;101295.05;1735387;81;21035;-39
2021/07/26 05:21:31;;;;;;;14.80;5.85;;;;;;;23.29;67.40;101291.37;1692464;84;21003;-39
2021/07/26 05:23:57;;;;;;;19.50;6.50;;;;;;;23.56;65.27;101291.13;1675505;84;21564;-40
2021/07/26 05:26:24;;;;;;;14.83;5.85;;;;;;;23.82;64.79;101300.95;1670929;84;21031;-39
2021/07/26 05:28:51;;;;;;;18.82;6.60;;;;;;;24.11;64.83;101295.69;1665682;85;21095;-39
2021/07/26 05:31:17;;;;;;;19.45;6.15;;;;;;;24.46;64.38;101286.45;1685020;84;20989;-40
2021/07/26 05:33:45;;;;;;;15.13;6.10;;;;;;;24.85;62.62;101287.13;1656351;85;21049;-39
2021/07/26 05:36:11;;;;;;;19.92;6.33;;;;;;;25.20;61.71;101290.53;1671250;84;21147;-39
2021/07/26 05:38:38;;;;;;;19.82;6.55;;;;;;;25.50;61.18;101292.06;1661022;84;20935;-39
2021/07/26 05:41:07;;;;;;;23.40;7.30;;;;;;;25.86;59.42;101288.29;1691406;84;21058;-38
2021/07/26 05:43:35;;;;;;;20.17;6.65;;;;;;;26.14;57.54;101299.13;1685134;83;21033;-40
2021/07/26 05:46:01;;;;;;;21.95;7.00;;;;;;;26.38;56.62;101293.04;1682202;84;21042;-40
2021/07/26 05:48:28;;;;;;;20.88;5.97;;;;;;;26.54;54.76;101296.75;1685977;84;21334;-39
2021/07/26 05:50:55;;;;;;;17.82;6.45;;;;;;;26.75;54.64;101294.80;1670006;84;20983;-40
2021/07/26 05:53:21;;;;;;;13.45;5.60;;;;;;;27.00;52.88;101290.34;1689159;84;21000;-39
2021/07/26 05:55:49;;;;;;;17.10;6.50;;;;;;;27.08;53.67;101297.24;1677564;85;20991;-40
2021/07/26 05:58:15;;;;;;;13.93;5.47;;;;;;;27.28;53.65;101289.57;1663950;85;20991;-40
2021/07/26 06:00:44;;;;;;;24.77;5.35;;;;;;;27.45;53.16;101294.44;1665462;84;21118;-41
2021/07/26 06:03:10;;;;;;;12.43;5.42;;;;;;;27.61;52.07;101291.94;1652079;85;20962;-40
2021/07/26 06:05:36;;;;;;;13.70;4.97;;;;;;;27.79;51.50;101297.14;1674400;84;21509;-40
2021/07/26 06:08:05;;;;;;;11.83;5.50;;;;;;;27.96;51.43;101294.48;1673215;84;21587;-40
2021/07/26 06:10:31;;;;;;;15.60;5.62;;;;;;;28.02;47.83;101293.62;1731606;82;20864;-40
2021/07/26 06:12:59;;;;;;;17.05;5.20;;;;;;;27.88;49.99;101296.91;1747775;82;21022;-40
2021/07/26 06:15:27;;;;;;;21.80;5.15;;;;;;;27.94;49.88;101295.59;1723744;82;20929;-40
2021/07/26 06:17:54;;;;;;;20.35;5.47;;;;;;;28.01;50.67;101294.12;1709190;82;20894;-40
2021/07/26 06:20:21;;;;;;;18.75;5.72;;;;;;;28.15;49.79;101295.70;1704931;83;20989;-40
2021/07/26 06:22:47;;;;;;;12.00;5.00;;;;;;;28.13;47.96;101298.08;1721045;82;20917;-40
2021/07/26 06:25:14;;;;;;;14.10;5.22;;;;;;;28.13;48.17;101302.07;1719459;82;21991;-41
2021/07/26 06:27:41;;;;;;;19.07;5.12;;;;;;;28.17;47.90;101296.92;1679077;84;21763;-40
2021/07/26 06:30:09;;;;;;;14.70;5.42;;;;;;;28.13;47.25;101300.74;1717062;82;20904;-40
2021/07/26 06:32:36;;;;;;;18.65;5.08;;;;;;;28.02;47.59;101290.48;1706742;82;20996;-40
2021/07/26 06:35:05;;;;;;;18.12;5.55;;;;;;;28.03;46.91;101292.65;1716899;81;21014;-40
2021/07/26 06:37:31;;;;;;;17.70;4.92;;;;;;;28.08;46.07;101297.97;1748790;82;21138;-40
2021/07/26 06:40:00;;;;;;;17.75;4.58;;;;;;;28.13;46.61;101300.74;1733957;82;20964;-40
2021/07/26 06:42:26;;;;;;;12.90;4.42;;;;;;;28.21;46.22;101293.88;1733604;81;20900;-40
2021/07/26 06:44:55;;;;;;;15.65;4.35;;;;;;;28.26;45.77;101293.51;1719815;82;20945;-40
2021/07/26 06:47:21;;;;;;;13.45;4.45;;;;;;;28.24;45.24;101297.61;1716702;82;21541;-40
2021/07/26 06:49:48;;;;;;;18.32;4.55;;;;;;;28.31;44.97;101302.46;1720774;82;21802;-40
2021/07/26 06:52:14;;;;;;;7.58;3.92;;;;;;;28.30;45.29;101302.93;1716372;82;21007;-40
2021/07/26 06:54:41;;;;;;;11.22;4.55;;;;;;;28.41;44.34;101298.06;1693217;84;20941;-40
2021/07/26 06:57:07;;;;;;;13.72;4.55;;;;;;;28.38;44.09;101304.47;1710048;82;20988;-40
2021/07/26 06:59:34;;;;;;;9.78;4.40;;;;;;;28.38;44.18;101303.14;1683885;83;20909;-40
2021/07/26 07:02:00;;;;;;;15.53;3.98;;;;;;;28.35;44.70;101309.22;1678665;85;21205;-40
2021/07/26 07:04:27;;;;;;;15.35;3.72;;;;;;;28.35;43.47;101307.39;1675486;85;20962;-40
2021/07/26 07:06:55;;;;;;;13.60;4.30;;;;;;;28.42;44.19;101313.07;1674877;84;21000;-39
2021/07/26 07:09:21;;;;;;;7.40;3.77;;;;;;;28.57;45.07;101310.14;1662412;85;21005;-39
2021/07/26 07:11:48;;;;;;;20.00;3.80;;;;;;;28.74;43.68;101308.74;1657595;85;21123;-39
2021/07/26 07:14:16;;;;;;;7.60;3.90;;;;;;;28.80;42.79;101314.91;1658707;85;21078;-39
2021/07/26 07:16:42;;;;;;;15.85;3.60;;;;;;;28.65;42.09;101306.34;1703574;83;21020;-40
2021/07/26 07:19:09;;;;;;;5.92;3.20;;;;;;;28.51;44.52;101311.48;1678523;84;21017;-40
2021/07/26 07:21:37;;;;;;;6.33;3.60;;;;;;;28.63;43.86;101305.63;1677217;84;21142;-39
2021/07/26 07:24:05;;;;;;;14.40;4.28;;;;;;;28.68;43.51;101309.62;1726480;82;20924;-39
2021/07/26 07:26:32;;;;;;;7.22;3.72;;;;;;;28.53;42.07;101307.70;1727874;81;21072;-40
2021/07/26 07:28:59;;;;;;;11.48;3.87;;;;;;;28.35;41.65;101312.72;1730287;81;20924;-40
2021/07/26 07:31:27;;;;;;;4.72;3.20;;;;;;;28.26;43.17;101314.80;1736255;81;21007;-40
2021/07/26 07:33:55;;;;;;;9.20;3.47;;;;;;;28.25;43.17;101313.11;1713013;82;20963;-41
2021/07/26 07:36:23;;;;;;;9.08;3.52;;;;;;;28.38;43.57;101309.80;1737923;81;20994;-40
2021/07/26 07:38:50;;;;;;;10.23;3.70;;;;;;;28.63;42.23;101309.13;1729487;81;21046;-39
2021/07/26 07:41:17;;;;;;;6.75;3.25;;;;;;;28.98;42.51;101306.38;1714406;81;20951;-40
2021/07/26 07:43:44;;;;;;;8.30;3.60;;;;;;;29.44;41.10;101305.17;1746443;81;21003;-40
2021/07/26 07:46:10;;;;;;;9.38;3.50;;;;;;;29.75;39.93;101302.98;1742256;81;21555;-40
2021/07/26 07:48:38;;;;;;;4.92;3.35;;;;;;;29.88;39.17;101302.75;1721457;82;21298;-40
2021/07/26 07:51:07;;;;;;;9.58;3.47;;;;;;;30.06;39.29;101302.50;1733704;81;21742;-40
2021/07/26 07:53:33;;;;;;;4.67;3.15;;;;;;;30.24;39.24;101309.34;1735483;81;20976;-40
2021/07/26 07:55:59;;;;;;;4.33;3.20;;;;;;;30.54;39.35;101310.73;1726808;81;20992;-40
2021/07/26 07:58:26;;;;;;;10.15;3.33;;;;;;;30.84;38.12;101309.45;1722632;82;20971;-39
2021/07/26 08:00:55;;;;;;;13.03;3.40;;;;;;;31.08;39.12;101315.20;1734711;82;20987;-40
2021/07/26 08:03:22;;;;;;;8.83;3.25;;;;;;;31.38;37.97;101309.81;1745206;82;21138;-43
2021/07/26 08:05:49;;;;;;;9.88;3.87;;;;;;;31.50;36.67;101319.36;1730521;82;21450;-40
2021/07/26 08:08:16;;;;;;;7.58;3.20;;;;;;;31.59;34.63;101305.61;1704128;82;20947;-39
2021/07/26 08:10:44;;;;;;;10.15;3.35;;;;;;;31.66;36.30;101307.18;1703459;82;21889;-40
2021/07/26 08:13:10;;;;;;;8.50;3.15;;;;;;;31.77;34.88;101308.37;1749460;82;21583;-41
2021/07/26 08:15:38;;;;;;;6.83;3.50;;;;;;;31.72;34.49;101309.30;1744113;82;21817;-40
2021/07/26 08:18:06;;;;;;;5.50;2.95;;;;;;;31.72;35.48;101304.42;1709009;83;20967;-39
2021/07/26 08:20:33;;;;;;;6.78;2.83;;;;;;;31.76;34.72;101313.38;1708682;82;21732;-40
2021/07/26 08:22:59;;;;;;;8.38;3.25;;;;;;;31.78;35.24;101311.87;1702672;83;20999;-38
2021/07/26 08:25:27;;;;;;;6.28;3.10;;;;;;;31.77;34.93;101312.39;1688426;82;21011;-40
2021/07/26 08:27:56;;;;;;;9.93;3.08;;;;;;;31.67;34.70;101313.73;1715541;83;21138;-40
2021/07/26 08:30:29;;;;;;;9.75;3.50;;;;;;;31.81;34.14;101313.78;1712300;82;20994;-40
2021/07/26 08:32:56;;;;;;;13.53;3.60;;;;;;;31.94;34.01;101309.90;1662017;85;21541;-40
2021/07/26 08:35:24;;;;;;;9.10;3.22;;;;;;;32.16;35.12;101311.83;1717273;82;20939;-39
2021/07/26 08:37:51;;;;;;;6.42;2.77;;;;;;;32.33;35.69;101312.88;1711173;83;20895;-40
2021/07/26 08:40:24;;;;;;;3.90;2.62;;;;;;;32.45;34.26;101307.66;1718691;82;20907;-39
2021/07/26 08:42:51;;;;;;;3.83;2.90;;;;;;;32.48;34.29;101310.55;1718585;83;20973;-39
2021/07/26 08:45:18;;;;;;;11.15;2.77;;;;;;;32.43;33.34;101309.65;1719124;82;20947;-39
2021/07/26 08:47:45;;;;;;;7.10;2.90;;;;;;;32.45;33.69;101314.84;1712301;82;20970;-40
2021/07/26 08:50:17;;;;;;;5.03;2.50;;;;;;;32.46;32.44;101307.14;1719125;82;20987;-40
2021/07/26 08:52:48;;;;;;;9.83;3.08;;;;;;;32.38;32.23;101307.42;1715439;82;20883;-40
2021/07/26 08:55:16;;;;;;;14.18;2.85;;;;;;;32.32;32.99;101306.69;1705402;82;21446;-39
2021/07/26 08:57:45;;;;;;;10.32;2.90;;;;;;;32.16;33.28;101304.66;1717514;83;20978;-39
2021/07/26 09:00:16;;;;;;;6.05;3.25;;;;;;;32.02;35.20;101304.66;1739289;82;20931;-40
2021/07/26 09:02:42;;;;;;;7.90;3.00;;;;;;;31.99;32.71;101305.45;1738196;82;21529;-39
2021/07/26 09:05:11;;;;;;;8.05;2.75;;;;;;;31.96;34.90;101306.61;1695717;83;21079;-38
2021/07/26 09:07:40;;;;;;;13.08;3.27;;;;;;;32.18;34.98;101301.33;1742120;82;20940;-39
2021/07/26 09:10:25;;;;;;;7.45;3.20;;;;;;;32.45;35.21;101301.45;1732794;82;21023;-39
2021/07/26 09:12:52;;;;;;;9.30;2.92;;;;;;;32.58;33.56;101303.75;1721737;81;21541;-39
2021/07/26 09:15:26;;;;;;;10.08;3.52;;;;;;;32.54;32.46;101292.52;1723599;82;21015;-40
2021/07/26 09:17:53;;;;;;;11.78;2.98;;;;;;;32.51;34.27;101293.65;1719233;82;21056;-41
2021/07/26 09:20:20;;;;;;;4.25;2.92;;;;;;;32.59;32.95;101292.89;1716903;82;20935;-40
2021/07/26 09:22:47;;;;;;;11.85;2.87;;;;;;;32.70;33.18;101292.30;1717063;82;20999;-40
2021/07/26 09:25:23;;;;;;;5.67;2.83;;;;;;;32.77;33.19;101294.72;1696498;82;21015;-40
2021/07/26 09:28:01;;;;;;;9.50;3.00;;;;;;;32.80;32.75;101292.56;1700553;82;21413;-39
2021/07/26 09:30:38;;;;;;;6.75;3.02;;;;;;;32.83;31.78;101292.24;1719356;82;21170;-40
2021/07/26 09:33:17;;;;;;;11.48;3.05;;;;;;;32.92;32.94;101286.48;1714254;82;20943;-39
2021/07/26 09:35:44;;;;;;;4.33;2.90;;;;;;;33.16;33.59;101294.87;1724268;82;20889;-40
2021/07/26 09:38:11;;;;;;;6.33;2.72;;;;;;;33.35;30.92;101280.41;1704586;81;20941;-40
2021/07/26 09:40:38;;;;;;;4.35;2.62;;;;;;;33.49;31.56;101287.90;1724209;82;21023;-40
2021/07/26 09:43:20;;;;;;;5.20;2.62;;;;;;;33.46;31.16;101284.69;1717064;82;21171;-39
2021/07/26 09:45:49;;;;;;;9.30;2.75;;;;;;;33.33;32.10;101283.23;1723599;82;20925;-39
2021/07/26 09:48:17;;;;;;;5.53;2.70;;;;;;;33.19;33.80;101278.47;1739312;82;21490;-39
2021/07/26 09:50:47;;;;;;;8.80;2.87;;;;;;;33.15;30.78;101277.11;1707267;82;21010;-39
2021/07/26 09:53:24;;;;;;;14.20;2.85;;;;;;;33.09;31.73;101279.42;1731016;82;20952;-39
2021/07/26 09:56:01;;;;;;;9.18;2.45;;;;;;;33.19;32.88;101283.31;1716772;82;21822;-40
2021/07/26 09:58:38;;;;;;;5.42;2.87;;;;;;;33.21;31.03;101281.31;1731387;80;21046;-40
2021/07/26 10:01:06;;;;;;;10.90;3.30;;;;;;;33.16;32.45;101280.95;1724889;82;21017;-40
2021/07/26 10:03:32;;;;;;;5.92;2.90;;;;;;;33.22;31.75;101281.69;1730525;82;20920;-40
2021/07/26 10:05:59;;;;;;;8.50;3.10;;;;;;;33.23;33.10;101279.34;1698996;83;20971;-40
2021/07/26 10:08:28;;;;;;;4.05;2.58;;;;;;;33.28;33.31;101269.98;1725860;81;21123;-40
2021/07/26 10:10:56;;;;;;;11.10;3.60;;;;;;;33.47;31.60;101267.59;1734887;81;20943;-39
2021/07/26 10:13:22;;;;;;;7.40;2.70;;;;;;;33.45;32.71;101270.41;1710090;82;21061;-40
2021/07/26 10:15:51;;;;;;;12.98;2.72;;;;;;;33.63;33.80;101266.81;1720947;82;20979;-39
2021/07/26 10:18:18;;;;;;;7.58;2.90;;;;;;;33.84;32.44;101265.56;1721797;82;21480;-40
2021/07/26 10:20:59;;;;;;;17.15;3.05;;;;;;;34.07;32.19;101259.95;1742525;82;21546;-40
2021/07/26 10:23:36;;;;;;;10.43;3.20;;;;;;;34.25;31.74;101258.98;1723684;82;20909;-41
2021/07/26 10:26:11;;;;;;;16.73;3.35;;;;;;;34.57;32.32;101264.06;1718846;82;21022;-40
2021/07/26 10:28:41;;;;;;;28.32;3.95;;;;;;;34.77;31.33;101257.02;1725925;82;21007;-40
2021/07/26 10:31:34;;;;;;;22.67;3.83;;;;;;;34.88;31.76;101259.34;1696729;83;21054;-40
2021/07/26 10:34:17;;;;;;;14.80;3.87;;;;;;;35.01;31.33;101258.02;1720902;82;21179;-40
2021/07/26 10:36:55;;;;;;;7.30;2.60;;;;;;;35.11;31.42;101257.31;1718942;82;21525;-42
2021/07/26 10:39:19;;;;;;;24.40;4.10;;;;;;;35.05;31.92;101253.45;1689785;84;21500;-40
2021/07/26 10:41:56;;;;;;;16.05;2.98;;;;;;;34.95;31.61;101247.41;1658738;85;21017;-41
2021/07/26 10:44:29;;;;;;;7.85;2.90;;;;;;;34.86;30.20;101244.38;1682171;84;21549;-39
2021/07/26 10:47:07;;;;;;;11.78;3.17;;;;;;;34.85;31.17;101249.42;1675902;84;21175;-39
2021/07/26 10:49:53;;;;;;;9.28;3.15;;;;;;;34.84;31.70;101242.36;1688870;83;20927;-40
2021/07/26 10:52:26;;;;;;;;;;;;;;;34.87;30.22;101245.56;1684565;83;21071;-40
2021/07/26 10:54:54;;;;;;;12.23;3.17;;;;;;;34.84;30.08;101240.53;1674810;84;20088;-40
2021/07/26 10:57:43;;;;;;;6.55;2.77;;;;;;;34.61;30.18;101234.50;1674972;85;21516;-39
2021/07/26 11:00:16;;;;;;;8.93;3.17;;;;;;;34.47;30.65;101233.79;1662054;85;21144;-39
2021/07/26 11:02:50;;;;;;;4.90;3.40;;;;;;;34.52;31.94;101229.63;1714163;82;20905;-40
2021/07/26 11:05:31;;;;;;;13.43;2.98;;;;;;;34.65;31.17;101231.81;1722759;82;20940;-40
2021/07/26 11:08:23;;;;;;;10.03;3.40;;;;;;;34.70;30.93;101238.52;1719839;82;21486;-39
2021/07/26 11:10:57;;;;;;;6.45;2.87;;;;;;;34.52;30.23;101230.98;1723035;82;21132;-40
2021/07/26 11:13:52;;;;;;;8.10;2.90;;;;;;;34.52;30.70;101231.50;1716096;82;21056;-40
2021/07/26 11:16:52;;;;;;;6.23;3.50;;;;;;;34.53;31.25;101227.80;1710125;82;21024;-40
2021/07/26 11:20:05;;;;;;;13.70;3.05;;;;;;;34.59;31.58;101224.43;1720573;82;21407;-40
2021/07/26 11:22:31;;;;;;;32.42;3.90;;;;;;;34.70;30.74;101225.94;1719214;82;21140;-40
2021/07/26 11:25:06;;;;;;;15.35;3.58;;;;;;;34.71;30.83;101228.10;1665500;86;20957;-41
2021/07/26 11:27:40;;;;;;;18.87;3.47;;;;;;;34.61;29.21;101219.72;1729450;82;21974;-40
2021/07/26 11:30:08;;;;;;;13.28;3.95;;;;;;;34.53;29.85;101226.45;1736552;81;20933;-39